sensor_id;sensor_type;location;lat;lon;timestamp;pressure;altitude;pressure_sealevel;temperature;humidity
3434;BME280;1730;41.932;25.548;2022-08-07T00:01:26;98733.41;;;24.01;100.00
3434;BME280;1730;41.932;25.548;2022-08-07T00:03:51;98532.63;;;22.74;100.00
3434;BME280;1730;41.932;25.548;2022-08-07T00:06:17;98766.41;;;23.96;100.00
3434;BME280;1730;41.932;25.548;2022-08-07T00:08:43;98661.09;;;23.12;100.00
3434;BME280;1730;41.932;25.548;2022-08-07T00:11:09;98768.56;;;23.72;100.00
3434;BME280;1730;41.932;25.548;2022-08-07T00:13:34;98770.22;;;23.73;100.00
3434;BME280;1730;41.932;25.548;2022-08-07T00:16:03;98771.12;;;23.79;100.00
3434;BME280;1730;41.932;25.548;2022-08-07T00:18:29;98762.69;;;23.86;100.00
3434;BME280;1730;41.932;25.548;2022-08-07T00:21:06;98747.84;;;23.70;100.00
3434;BME280;1730;41.932;25.548;2022-08-07T00:23:33;98766.03;;;23.71;100.00
3434;BME280;1730;41.932;25.548;2022-08-07T00:26:00;98764.72;;;23.73;100.00
3434;BME280;1730;41.932;25.548;2022-08-07T00:28:28;98243.13;;;20.30;100.00
3434;BME280;1730;41.932;25.548;2022-08-07T00:30:54;98763.41;;;23.59;100.00
3434;BME280;1730;41.932;25.548;2022-08-07T00:33:19;98749.78;;;23.19;100.00
3434;BME280;1730;41.932;25.548;2022-08-07T00:35:51;98770.47;;;23.39;100.00
3434;BME280;1730;41.932;25.548;2022-08-07T00:38:17;98776.38;;;23.30;100.00
3434;BME280;1730;41.932;25.548;2022-08-07T00:40:43;98775.31;;;23.48;100.00
3434;BME280;1730;41.932;25.548;2022-08-07T00:43:10;98721.41;;;23.35;100.00
3434;BME280;1730;41.932;25.548;2022-08-07T00:45:38;98661.78;;;22.86;100.00
3434;BME280;1730;41.932;25.548;2022-08-07T00:48:06;98772.25;;;23.45;100.00
3434;BME280;1730;41.932;25.548;2022-08-07T00:50:32;98750.78;;;23.13;100.00
3434;BME280;1730;41.932;25.548;2022-08-07T00:52:58;98776.13;;;23.32;100.00
3434;BME280;1730;41.932;25.548;2022-08-07T00:55:25;98777.91;;;23.38;100.00
3434;BME280;1730;41.932;25.548;2022-08-07T00:57:51;98777.06;;;23.21;100.00
3434;BME280;1730;41.932;25.548;2022-08-07T01:00:17;98787.38;;;23.30;100.00
3434;BME280;1730;41.932;25.548;2022-08-07T01:02:44;98780.56;;;23.16;100.00
3434;BME280;1730;41.932;25.548;2022-08-07T01:05:10;98667.59;;;22.44;100.00
3434;BME280;1730;41.932;25.548;2022-08-07T01:07:36;98782.37;;;23.11;100.00
3434;BME280;1730;41.932;25.548;2022-08-07T01:10:02;98788.94;;;23.10;100.00
3434;BME280;1730;41.932;25.548;2022-08-07T01:12:30;98783.22;;;23.11;100.00
3434;BME280;1730;41.932;25.548;2022-08-07T01:14:55;98785.38;;;23.09;100.00
3434;BME280;1730;41.932;25.548;2022-08-07T01:17:22;98784.69;;;23.02;100.00
3434;BME280;1730;41.932;25.548;2022-08-07T01:19:49;98795.28;;;22.94;100.00
3434;BME280;1730;41.932;25.548;2022-08-07T01:22:16;98788.53;;;23.01;100.00
3434;BME280;1730;41.932;25.548;2022-08-07T01:24:42;98665.53;;;22.23;100.00
3434;BME280;1730;41.932;25.548;2022-08-07T01:27:09;98783.63;;;23.03;100.00
3434;BME280;1730;41.932;25.548;2022-08-07T01:29:34;98791.13;;;23.08;100.00
3434;BME280;1730;41.932;25.548;2022-08-07T01:32:01;98687.44;;;22.46;100.00
3434;BME280;1730;41.932;25.548;2022-08-07T01:34:31;98798.13;;;22.99;100.00
3434;BME280;1730;41.932;25.548;2022-08-07T01:36:57;98793.88;;;23.08;100.00
3434;BME280;1730;41.932;25.548;2022-08-07T01:39:23;98648.00;;;22.24;100.00
3434;BME280;1730;41.932;25.548;2022-08-07T01:41:49;98749.69;;;22.98;100.00
3434;BME280;1730;41.932;25.548;2022-08-07T01:44:14;98560.91;;;21.68;100.00
3434;BME280;1730;41.932;25.548;2022-08-07T01:46:40;98820.47;;;23.02;100.00
3434;BME280;1730;41.932;25.548;2022-08-07T01:49:06;98799.19;;;22.98;100.00
3434;BME280;1730;41.932;25.548;2022-08-07T01:51:32;98806.16;;;22.88;100.00
3434;BME280;1730;41.932;25.548;2022-08-07T01:54:02;98807.69;;;22.96;100.00
3434;BME280;1730;41.932;25.548;2022-08-07T01:56:34;98811.50;;;22.95;100.00
3434;BME280;1730;41.932;25.548;2022-08-07T01:59:24;98806.91;;;22.84;100.00
3434;BME280;1730;41.932;25.548;2022-08-07T02:01:58;98815.44;;;22.71;100.00
3434;BME280;1730;41.932;25.548;2022-08-07T02:04:30;98821.53;;;22.61;100.00
3434;BME280;1730;41.932;25.548;2022-08-07T02:06:57;98819.28;;;22.58;100.00
3434;BME280;1730;41.932;25.548;2022-08-07T02:09:25;98713.25;;;21.82;100.00
3434;BME280;1730;41.932;25.548;2022-08-07T02:11:51;98774.53;;;22.34;100.00
3434;BME280;1730;41.932;25.548;2022-08-07T02:14:19;98695.28;;;21.51;100.00
3434;BME280;1730;41.932;25.548;2022-08-07T02:16:48;98711.75;;;21.63;100.00
3434;BME280;1730;41.932;25.548;2022-08-07T02:19:16;98846.12;;;22.28;100.00
3434;BME280;1730;41.932;25.548;2022-08-07T02:21:42;98846.12;;;22.28;100.00
3434;BME280;1730;41.932;25.548;2022-08-07T02:24:09;98848.03;;;22.27;100.00
3434;BME280;1730;41.932;25.548;2022-08-07T02:26:36;98736.22;;;21.53;100.00
3434;BME280;1730;41.932;25.548;2022-08-07T02:29:05;98729.53;;;21.49;100.00
3434;BME280;1730;41.932;25.548;2022-08-07T02:31:32;98871.19;;;22.31;100.00
3434;BME280;1730;41.932;25.548;2022-08-07T02:34:00;98871.22;;;22.20;100.00
3434;BME280;1730;41.932;25.548;2022-08-07T02:36:28;98871.56;;;22.12;100.00
3434;BME280;1730;41.932;25.548;2022-08-07T02:38:56;98773.06;;;21.22;100.00
3434;BME280;1730;41.932;25.548;2022-08-07T02:41:23;98906.41;;;21.88;100.00
3434;BME280;1730;41.932;25.548;2022-08-07T02:43:49;98915.62;;;22.05;100.00
3434;BME280;1730;41.932;25.548;2022-08-07T02:46:22;98904.06;;;22.15;100.00
3434;BME280;1730;41.932;25.548;2022-08-07T02:48:49;98865.84;;;22.13;100.00
3434;BME280;1730;41.932;25.548;2022-08-07T02:51:17;98866.09;;;22.00;100.00
3434;BME280;1730;41.932;25.548;2022-08-07T02:53:45;98914.22;;;22.14;100.00
3434;BME280;1730;41.932;25.548;2022-08-07T02:56:20;98897.00;;;22.19;100.00
3434;BME280;1730;41.932;25.548;2022-08-07T02:58:49;98893.19;;;22.20;100.00
3434;BME280;1730;41.932;25.548;2022-08-07T03:01:17;98894.84;;;22.09;100.00
3434;BME280;1730;41.932;25.548;2022-08-07T03:03:45;98906.06;;;22.08;100.00
3434;BME280;1730;41.932;25.548;2022-08-07T03:06:13;98898.69;;;22.20;100.00
3434;BME280;1730;41.932;25.548;2022-08-07T03:08:39;98898.91;;;22.18;100.00
3434;BME280;1730;41.932;25.548;2022-08-07T03:11:05;98808.16;;;21.67;100.00
3434;BME280;1730;41.932;25.548;2022-08-07T03:13:32;98898.91;;;22.18;100.00
3434;BME280;1730;41.932;25.548;2022-08-07T03:15:57;98891.13;;;22.38;100.00
3434;BME280;1730;41.932;25.548;2022-08-07T03:18:24;98893.38;;;22.53;100.00
3434;BME280;1730;41.932;25.548;2022-08-07T03:20:50;98886.94;;;22.71;100.00
3434;BME280;1730;41.932;25.548;2022-08-07T03:23:17;98886.03;;;22.82;100.00
3434;BME280;1730;41.932;25.548;2022-08-07T03:25:44;98799.22;;;22.06;100.00
3434;BME280;1730;41.932;25.548;2022-08-07T03:28:12;98924.69;;;22.64;100.00
3434;BME280;1730;41.932;25.548;2022-08-07T03:30:41;98899.94;;;22.75;100.00
3434;BME280;1730;41.932;25.548;2022-08-07T03:33:08;98900.06;;;22.80;100.00
3434;BME280;1730;41.932;25.548;2022-08-07T03:35:35;98874.09;;;22.65;100.00
3434;BME280;1730;41.932;25.548;2022-08-07T03:38:03;98483.81;;;20.08;100.00
3434;BME280;1730;41.932;25.548;2022-08-07T03:40:31;98792.66;;;22.07;100.00
3434;BME280;1730;41.932;25.548;2022-08-07T03:42:56;98576.44;;;20.88;100.00
3434;BME280;1730;41.932;25.548;2022-08-07T03:45:24;98754.97;;;22.31;100.00
3434;BME280;1730;41.932;25.548;2022-08-07T03:47:51;98760.00;;;22.62;100.00
3434;BME280;1730;41.932;25.548;2022-08-07T03:50:18;98878.78;;;23.77;100.00
3434;BME280;1730;41.932;25.548;2022-08-07T03:52:46;98852.75;;;23.68;100.00
3434;BME280;1730;41.932;25.548;2022-08-07T03:55:12;98705.84;;;23.08;100.00
3434;BME280;1730;41.932;25.548;2022-08-07T03:57:38;98836.34;;;24.29;100.00
3434;BME280;1730;41.932;25.548;2022-08-07T04:00:06;98697.13;;;23.66;100.00
3434;BME280;1730;41.932;25.548;2022-08-07T04:02:32;98843.00;;;24.54;100.00
3434;BME280;1730;41.932;25.548;2022-08-07T04:04:57;98816.41;;;24.65;100.00
3434;BME280;1730;41.932;25.548;2022-08-07T04:07:23;98696.03;;;24.27;100.00
3434;BME280;1730;41.932;25.548;2022-08-07T04:09:49;98763.66;;;24.83;100.00
3434;BME280;1730;41.932;25.548;2022-08-07T04:12:16;98792.84;;;25.33;100.00
3434;BME280;1730;41.932;25.548;2022-08-07T04:14:43;98789.91;;;25.76;100.00
3434;BME280;1730;41.932;25.548;2022-08-07T04:17:09;98771.59;;;26.02;100.00
3434;BME280;1730;41.932;25.548;2022-08-07T04:19:35;98773.41;;;25.86;100.00
3434;BME280;1730;41.932;25.548;2022-08-07T04:22:01;98671.50;;;25.48;100.00
3434;BME280;1730;41.932;25.548;2022-08-07T04:24:27;98760.44;;;26.34;100.00
3434;BME280;1730;41.932;25.548;2022-08-07T04:26:54;98442.84;;;24.41;100.00
3434;BME280;1730;41.932;25.548;2022-08-07T04:29:22;98684.75;;;25.93;100.00
3434;BME280;1730;41.932;25.548;2022-08-07T04:31:48;98746.78;;;26.95;100.00
3434;BME280;1730;41.932;25.548;2022-08-07T04:34:14;98624.97;;;26.59;100.00
3434;BME280;1730;41.932;25.548;2022-08-07T04:36:40;98757.06;;;27.04;100.00
3434;BME280;1730;41.932;25.548;2022-08-07T04:39:08;98749.06;;;27.38;100.00
3434;BME280;1730;41.932;25.548;2022-08-07T04:41:33;98739.31;;;27.91;100.00
3434;BME280;1730;41.932;25.548;2022-08-07T04:44:00;98705.09;;;28.31;100.00
3434;BME280;1730;41.932;25.548;2022-08-07T04:46:44;98731.97;;;28.36;100.00
3434;BME280;1730;41.932;25.548;2022-08-07T04:55:29;98739.44;;;28.40;100.00
3434;BME280;1730;41.932;25.548;2022-08-07T05:01:00;98738.91;;;28.43;100.00
3434;BME280;1730;41.932;25.548;2022-08-07T05:03:50;98627.91;;;28.43;100.00
3434;BME280;1730;41.932;25.548;2022-08-07T05:06:23;98738.00;;;29.02;100.00
3434;BME280;1730;41.932;25.548;2022-08-07T05:09:23;98728.84;;;29.69;100.00
3434;BME280;1730;41.932;25.548;2022-08-07T05:11:43;98741.25;;;29.53;100.00
3434;BME280;1730;41.932;25.548;2022-08-07T05:14:25;98645.84;;;29.34;100.00
3434;BME280;1730;41.932;25.548;2022-08-07T05:16:59;98732.56;;;31.02;100.00
3434;BME280;1730;41.932;25.548;2022-08-07T05:19:31;98731.69;;;31.20;100.00
3434;BME280;1730;41.932;25.548;2022-08-07T05:21:59;98737.75;;;30.48;100.00
3434;BME280;1730;41.932;25.548;2022-08-07T05:24:27;98736.94;;;30.23;100.00
3434;BME280;1730;41.932;25.548;2022-08-07T05:26:56;98665.50;;;30.94;100.00
3434;BME280;1730;41.932;25.548;2022-08-07T05:29:25;98742.34;;;31.83;100.00
3434;BME280;1730;41.932;25.548;2022-08-07T05:31:52;98738.94;;;31.86;100.00
3434;BME280;1730;41.932;25.548;2022-08-07T05:34:19;98752.63;;;31.37;100.00
3434;BME280;1730;41.932;25.548;2022-08-07T05:36:49;98744.50;;;31.72;100.00
3434;BME280;1730;41.932;25.548;2022-08-07T05:39:17;98658.03;;;31.59;100.00
3434;BME280;1730;41.932;25.548;2022-08-07T05:41:44;98730.81;;;31.90;100.00
3434;BME280;1730;41.932;25.548;2022-08-07T05:44:12;98744.37;;;32.24;100.00
3434;BME280;1730;41.932;25.548;2022-08-07T05:46:39;98746.25;;;32.55;99.24
3434;BME280;1730;41.932;25.548;2022-08-07T05:49:06;98748.31;;;32.09;99.93
3434;BME280;1730;41.932;25.548;2022-08-07T05:51:32;98750.31;;;31.76;100.00
3434;BME280;1730;41.932;25.548;2022-08-07T05:53:58;98751.94;;;31.45;100.00
3434;BME280;1730;41.932;25.548;2022-08-07T05:56:25;98671.38;;;31.43;100.00
3434;BME280;1730;41.932;25.548;2022-08-07T05:58:52;98656.59;;;32.02;95.71
3434;BME280;1730;41.932;25.548;2022-08-07T06:01:18;98663.84;;;32.17;94.17
3434;BME280;1730;41.932;25.548;2022-08-07T06:03:52;98751.72;;;32.47;91.88
3434;BME280;1730;41.932;25.548;2022-08-07T06:06:19;98743.09;;;32.02;98.48
3434;BME280;1730;41.932;25.548;2022-08-07T06:08:50;98762.66;;;32.57;95.54
3434;BME280;1730;41.932;25.548;2022-08-07T06:11:17;98770.66;;;32.77;95.20
3434;BME280;1730;41.932;25.548;2022-08-07T06:13:43;98766.59;;;32.83;89.71
3434;BME280;1730;41.932;25.548;2022-08-07T06:16:08;98695.66;;;32.43;88.81
3434;BME280;1730;41.932;25.548;2022-08-07T06:18:35;98771.81;;;31.89;99.50
3434;BME280;1730;41.932;25.548;2022-08-07T06:21:02;98771.56;;;31.72;100.00
3434;BME280;1730;41.932;25.548;2022-08-07T06:23:29;98769.19;;;32.39;95.26
3434;BME280;1730;41.932;25.548;2022-08-07T06:25:55;98779.81;;;31.77;99.25
3434;BME280;1730;41.932;25.548;2022-08-07T06:28:21;98664.56;;;32.36;91.46
3434;BME280;1730;41.932;25.548;2022-08-07T06:30:47;98662.16;;;32.43;90.18
3434;BME280;1730;41.932;25.548;2022-08-07T06:33:13;98765.94;;;33.58;80.09
3434;BME280;1730;41.932;25.548;2022-08-07T06:35:39;98778.66;;;33.42;79.43
3434;BME280;1730;41.932;25.548;2022-08-07T06:38:05;98772.50;;;32.82;85.73
3434;BME280;1730;41.932;25.548;2022-08-07T06:40:39;98770.22;;;32.84;83.27
3434;BME280;1730;41.932;25.548;2022-08-07T06:43:09;98563.56;;;31.25;86.35
3434;BME280;1730;41.932;25.548;2022-08-07T06:45:36;98670.38;;;32.12;84.12
3434;BME280;1730;41.932;25.548;2022-08-07T06:48:03;98720.69;;;32.35;85.57
3434;BME280;1730;41.932;25.548;2022-08-07T06:50:32;98219.75;;;28.68;85.77
3434;BME280;1730;41.932;25.548;2022-08-07T06:53:00;98765.87;;;31.63;90.92
3434;BME280;1730;41.932;25.548;2022-08-07T06:55:29;98761.78;;;31.56;94.14
3434;BME280;1730;41.932;25.548;2022-08-07T06:57:58;98755.00;;;31.11;98.69
3434;BME280;1730;41.932;25.548;2022-08-07T07:00:26;98764.75;;;31.78;91.94
3434;BME280;1730;41.932;25.548;2022-08-07T07:02:55;98708.75;;;31.42;89.92
3434;BME280;1730;41.932;25.548;2022-08-07T07:05:21;98769.41;;;31.50;94.15
3434;BME280;1730;41.932;25.548;2022-08-07T07:07:47;98667.25;;;30.89;91.52
3434;BME280;1730;41.932;25.548;2022-08-07T07:10:13;98658.53;;;30.16;100.00
3434;BME280;1730;41.932;25.548;2022-08-07T07:15:27;98773.91;;;30.71;99.60
3434;BME280;1730;41.932;25.548;2022-08-07T07:18:05;98783.44;;;31.45;94.94
3434;BME280;1730;41.932;25.548;2022-08-07T07:20:55;98772.63;;;30.82;98.13
3434;BME280;1730;41.932;25.548;2022-08-07T07:23:24;98780.31;;;30.91;99.15
3434;BME280;1730;41.932;25.548;2022-08-07T07:25:53;98769.59;;;30.60;100.00
3434;BME280;1730;41.932;25.548;2022-08-07T07:28:27;98673.59;;;29.91;100.00
3434;BME280;1730;41.932;25.548;2022-08-07T07:31:03;98770.94;;;31.24;95.52
3434;BME280;1730;41.932;25.548;2022-08-07T07:33:32;98780.34;;;30.48;100.00
3434;BME280;1730;41.932;25.548;2022-08-07T07:36:01;98776.59;;;30.58;99.47
3434;BME280;1730;41.932;25.548;2022-08-07T07:38:27;98778.28;;;30.77;98.66
3434;BME280;1730;41.932;25.548;2022-08-07T07:40:55;98773.87;;;30.53;99.77
3434;BME280;1730;41.932;25.548;2022-08-07T07:43:23;98777.12;;;31.02;97.11
3434;BME280;1730;41.932;25.548;2022-08-07T07:45:51;98685.34;;;30.07;96.72
3434;BME280;1730;41.932;25.548;2022-08-07T07:48:20;98769.13;;;30.53;97.83
3434;BME280;1730;41.932;25.548;2022-08-07T07:50:47;98785.66;;;31.11;95.94
3434;BME280;1730;41.932;25.548;2022-08-07T07:53:15;98578.63;;;29.55;99.16
3434;BME280;1730;41.932;25.548;2022-08-07T07:55:42;98774.84;;;31.23;96.03
3434;BME280;1730;41.932;25.548;2022-08-07T07:58:10;98572.38;;;29.92;92.86
3434;BME280;1730;41.932;25.548;2022-08-07T08:00:37;98472.31;;;29.45;92.78
3434;BME280;1730;41.932;25.548;2022-08-07T08:03:09;98756.63;;;30.93;90.96
3434;BME280;1730;41.932;25.548;2022-08-07T08:05:37;98758.19;;;30.99;93.83
3434;BME280;1730;41.932;25.548;2022-08-07T08:08:04;98777.88;;;31.08;91.46
3434;BME280;1730;41.932;25.548;2022-08-07T08:10:30;98696.41;;;30.36;92.91
3434;BME280;1730;41.932;25.548;2022-08-07T08:12:58;98552.94;;;29.64;92.47
3434;BME280;1730;41.932;25.548;2022-08-07T08:15:25;98755.66;;;31.03;85.81
3434;BME280;1730;41.932;25.548;2022-08-07T08:17:53;98759.19;;;31.27;84.66
3434;BME280;1730;41.932;25.548;2022-08-07T08:20:20;98689.47;;;31.13;78.97
3434;BME280;1730;41.932;25.548;2022-08-07T08:22:47;98478.22;;;29.81;75.07
3434;BME280;1730;41.932;25.548;2022-08-07T08:25:33;98731.41;;;31.22;76.70
3434;BME280;1730;41.932;25.548;2022-08-07T08:28:21;98719.94;;;30.86;76.81
3434;BME280;1730;41.932;25.548;2022-08-07T08:30:52;98735.56;;;31.89;72.29
3434;BME280;1730;41.932;25.548;2022-08-07T08:33:19;98654.78;;;31.52;68.27
3434;BME280;1730;41.932;25.548;2022-08-07T08:35:48;98684.66;;;31.00;70.21
3434;BME280;1730;41.932;25.548;2022-08-07T08:38:17;98740.53;;;31.60;66.26
3434;BME280;1730;41.932;25.548;2022-08-07T08:40:54;98643.38;;;31.35;67.19
3434;BME280;1730;41.932;25.548;2022-08-07T08:43:33;98710.00;;;31.82;65.02
3434;BME280;1730;41.932;25.548;2022-08-07T08:46:07;98738.03;;;32.04;67.09
3434;BME280;1730;41.932;25.548;2022-08-07T08:49:03;98735.03;;;32.01;65.11
3434;BME280;1730;41.932;25.548;2022-08-07T08:51:35;98521.81;;;30.93;61.68
3434;BME280;1730;41.932;25.548;2022-08-07T08:54:10;98607.25;;;31.43;62.39
3434;BME280;1730;41.932;25.548;2022-08-07T08:56:42;98692.03;;;31.42;63.58
3434;BME280;1730;41.932;25.548;2022-08-07T09:10:09;98738.47;;;32.39;59.62
3434;BME280;1730;41.932;25.548;2022-08-07T09:12:51;98717.22;;;32.92;58.00
3434;BME280;1730;41.932;25.548;2022-08-07T09:18:31;98727.00;;;32.68;54.48
3434;BME280;1730;41.932;25.548;2022-08-07T09:21:17;98503.31;;;31.56;52.96
3434;BME280;1730;41.932;25.548;2022-08-07T09:24:10;98727.66;;;32.87;52.13
3434;BME280;1730;41.932;25.548;2022-08-07T09:27:10;98742.28;;;32.56;54.18
3434;BME280;1730;41.932;25.548;2022-08-07T09:30:03;98740.03;;;32.45;52.65
3434;BME280;1730;41.932;25.548;2022-08-07T09:51:50;98702.25;;;31.47;59.34
3434;BME280;1730;41.932;25.548;2022-08-07T09:54:33;98714.31;;;31.42;60.98
3434;BME280;1730;41.932;25.548;2022-08-07T10:00:04;98701.97;;;31.94;58.61
3434;BME280;1730;41.932;25.548;2022-08-07T10:22:37;98632.53;;;31.93;57.83
3434;BME280;1730;41.932;25.548;2022-08-07T10:28:29;98672.91;;;31.95;55.51
3434;BME280;1730;41.932;25.548;2022-08-07T10:32:04;98689.56;;;32.00;54.88
3434;BME280;1730;41.932;25.548;2022-08-07T10:37:33;98676.13;;;31.89;53.83
3434;BME280;1730;41.932;25.548;2022-08-07T10:40:07;98679.25;;;32.14;53.40
3434;BME280;1730;41.932;25.548;2022-08-07T10:42:39;98663.78;;;32.58;51.99
3434;BME280;1730;41.932;25.548;2022-08-07T10:45:16;98664.63;;;32.94;51.43
3434;BME280;1730;41.932;25.548;2022-08-07T10:50:45;98398.78;;;31.04;50.85
3434;BME280;1730;41.932;25.548;2022-08-07T10:53:26;98663.62;;;32.90;51.14
3434;BME280;1730;41.932;25.548;2022-08-07T11:04:04;98670.59;;;33.01;49.26
3434;BME280;1730;41.932;25.548;2022-08-07T11:07:36;98662.34;;;32.96;50.20
3434;BME280;1730;41.932;25.548;2022-08-07T11:09:46;98672.28;;;32.53;51.10
3434;BME280;1730;41.932;25.548;2022-08-07T11:12:18;98437.13;;;31.07;49.26
3434;BME280;1730;41.932;25.548;2022-08-07T11:15:01;98668.72;;;32.11;49.49
3434;BME280;1730;41.932;25.548;2022-08-07T11:20:21;98673.84;;;32.04;49.79
3434;BME280;1730;41.932;25.548;2022-08-07T11:23:13;98679.88;;;32.25;49.57
3434;BME280;1730;41.932;25.548;2022-08-07T11:25:47;98583.16;;;31.93;49.40
3434;BME280;1730;41.932;25.548;2022-08-07T11:31:21;98560.72;;;32.12;50.32
3434;BME280;1730;41.932;25.548;2022-08-07T11:36:43;98530.16;;;31.80;50.99
3434;BME280;1730;41.932;25.548;2022-08-07T11:42:12;98654.16;;;32.14;53.54
3434;BME280;1730;41.932;25.548;2022-08-07T11:45:09;98645.37;;;32.57;52.15
3434;BME280;1730;41.932;25.548;2022-08-07T11:47:53;98629.59;;;33.33;49.77
3434;BME280;1730;41.932;25.548;2022-08-07T11:59:11;98519.56;;;33.85;44.26
3434;BME280;1730;41.932;25.548;2022-08-07T12:01:55;98525.72;;;34.05;42.85
3434;BME280;1730;41.932;25.548;2022-08-07T12:07:24;98618.56;;;34.07;41.21
3434;BME280;1730;41.932;25.548;2022-08-07T12:10:02;98618.41;;;33.33;42.36
3434;BME280;1730;41.932;25.548;2022-08-07T12:15:27;98621.41;;;33.45;41.10
3434;BME280;1730;41.932;25.548;2022-08-07T12:18:02;98405.63;;;33.03;39.75
3434;BME280;1730;41.932;25.548;2022-08-07T12:20:45;98605.53;;;34.67;39.75
3434;BME280;1730;41.932;25.548;2022-08-07T12:26:03;98603.03;;;34.57;38.88
3434;BME280;1730;41.932;25.548;2022-08-07T12:29:16;98348.03;;;33.59;37.89
3434;BME280;1730;41.932;25.548;2022-08-07T12:31:47;98590.87;;;33.26;49.53
3434;BME280;1730;41.932;25.548;2022-08-07T12:34:15;98634.38;;;32.38;59.91
3434;BME280;1730;41.932;25.548;2022-08-07T12:36:43;98689.34;;;31.97;65.92
3434;BME280;1730;41.932;25.548;2022-08-07T12:39:10;98695.50;;;31.02;97.55
3434;BME280;1730;41.932;25.548;2022-08-07T12:41:39;98711.16;;;30.13;100.00
3434;BME280;1730;41.932;25.548;2022-08-07T12:44:07;98714.19;;;29.64;100.00
3434;BME280;1730;41.932;25.548;2022-08-07T12:49:32;98710.91;;;29.23;100.00
3434;BME280;1730;41.932;25.548;2022-08-07T12:52:06;98734.00;;;29.18;100.00
3434;BME280;1730;41.932;25.548;2022-08-07T12:54:42;98723.50;;;29.10;100.00
3434;BME280;1730;41.932;25.548;2022-08-07T12:57:11;98747.62;;;28.65;100.00
3434;BME280;1730;41.932;25.548;2022-08-07T12:59:38;98752.44;;;28.55;100.00
3434;BME280;1730;41.932;25.548;2022-08-07T13:02:26;98668.19;;;27.31;100.00
3434;BME280;1730;41.932;25.548;2022-08-07T13:14:09;98833.19;;;27.02;100.00
3434;BME280;1730;41.932;25.548;2022-08-07T13:16:47;98830.16;;;27.13;100.00
3434;BME280;1730;41.932;25.548;2022-08-07T13:19:51;98816.34;;;27.39;100.00
3434;BME280;1730;41.932;25.548;2022-08-07T13:22:33;98813.91;;;27.67;100.00
3434;BME280;1730;41.932;25.548;2022-08-07T13:25:11;98833.28;;;27.52;100.00
3434;BME280;1730;41.932;25.548;2022-08-07T13:27:41;98817.50;;;27.58;100.00
3434;BME280;1730;41.932;25.548;2022-08-07T13:30:10;98824.94;;;27.47;100.00
3434;BME280;1730;41.932;25.548;2022-08-07T13:35:36;98835.25;;;27.62;100.00
3434;BME280;1730;41.932;25.548;2022-08-07T13:38:16;98778.72;;;27.63;100.00
3434;BME280;1730;41.932;25.548;2022-08-07T13:43:48;98786.34;;;28.32;100.00
3434;BME280;1730;41.932;25.548;2022-08-07T13:46:20;98669.81;;;27.47;100.00
3434;BME280;1730;41.932;25.548;2022-08-07T13:48:50;98613.09;;;27.14;100.00
3434;BME280;1730;41.932;25.548;2022-08-07T13:51:17;98674.78;;;27.75;100.00
3434;BME280;1730;41.932;25.548;2022-08-07T13:53:50;98766.34;;;28.40;100.00
3434;BME280;1730;41.932;25.548;2022-08-07T13:56:22;98758.56;;;28.47;100.00
3434;BME280;1730;41.932;25.548;2022-08-07T13:58:52;98732.56;;;28.33;100.00
3434;BME280;1730;41.932;25.548;2022-08-07T14:03:55;98656.00;;;28.27;100.00
3434;BME280;1730;41.932;25.548;2022-08-07T14:06:22;98685.75;;;28.16;100.00
3434;BME280;1730;41.932;25.548;2022-08-07T14:08:50;98738.06;;;28.92;100.00
3434;BME280;1730;41.932;25.548;2022-08-07T14:11:20;98659.81;;;28.41;100.00
3434;BME280;1730;41.932;25.548;2022-08-07T14:13:51;98750.75;;;29.08;100.00
3434;BME280;1730;41.932;25.548;2022-08-07T14:16:24;98745.84;;;29.34;100.00
3434;BME280;1730;41.932;25.548;2022-08-07T14:18:54;98642.00;;;28.96;100.00
3434;BME280;1730;41.932;25.548;2022-08-07T14:21:31;98731.75;;;30.12;100.00
3434;BME280;1730;41.932;25.548;2022-08-07T14:24:04;98452.28;;;28.77;100.00
3434;BME280;1730;41.932;25.548;2022-08-07T14:26:53;98633.97;;;29.52;100.00
3434;BME280;1730;41.932;25.548;2022-08-07T14:29:25;98739.38;;;30.25;100.00
3434;BME280;1730;41.932;25.548;2022-08-07T14:31:51;98722.53;;;29.92;100.00
3434;BME280;1730;41.932;25.548;2022-08-07T14:34:18;98727.75;;;29.70;100.00
3434;BME280;1730;41.932;25.548;2022-08-07T14:36:46;98740.56;;;29.66;100.00
3434;BME280;1730;41.932;25.548;2022-08-07T14:39:13;98702.59;;;28.84;100.00
3434;BME280;1730;41.932;25.548;2022-08-07T14:41:43;98775.78;;;29.42;100.00
3434;BME280;1730;41.932;25.548;2022-08-07T14:44:13;98756.31;;;29.47;100.00
3434;BME280;1730;41.932;25.548;2022-08-07T14:46:41;98748.53;;;29.05;100.00
3434;BME280;1730;41.932;25.548;2022-08-07T14:49:08;98753.94;;;28.91;100.00
3434;BME280;1730;41.932;25.548;2022-08-07T14:51:36;98514.28;;;27.15;100.00
3434;BME280;1730;41.932;25.548;2022-08-07T14:54:03;98613.37;;;28.07;100.00
3434;BME280;1730;41.932;25.548;2022-08-07T14:56:30;98452.31;;;26.96;100.00
3434;BME280;1730;41.932;25.548;2022-08-07T14:59:01;98747.66;;;28.71;100.00
3434;BME280;1730;41.932;25.548;2022-08-07T15:01:32;98758.19;;;28.74;100.00
3434;BME280;1730;41.932;25.548;2022-08-07T15:04:01;98750.41;;;28.76;100.00
3434;BME280;1730;41.932;25.548;2022-08-07T15:06:30;98736.00;;;28.63;100.00
3434;BME280;1730;41.932;25.548;2022-08-07T15:09:14;98750.25;;;28.47;100.00
3434;BME280;1730;41.932;25.548;2022-08-07T15:11:55;98754.94;;;28.56;100.00
3434;BME280;1730;41.932;25.548;2022-08-07T15:14:25;98743.25;;;28.59;100.00
3434;BME280;1730;41.932;25.548;2022-08-07T15:17:13;98735.44;;;28.66;100.00
3434;BME280;1730;41.932;25.548;2022-08-07T15:19:48;98740.28;;;28.95;100.00
3434;BME280;1730;41.932;25.548;2022-08-07T15:22:15;98746.00;;;28.64;100.00
3434;BME280;1730;41.932;25.548;2022-08-07T15:24:46;98733.75;;;28.71;100.00
3434;BME280;1730;41.932;25.548;2022-08-07T15:27:20;98736.25;;;28.67;100.00
3434;BME280;1730;41.932;25.548;2022-08-07T15:29:50;98597.47;;;27.69;100.00
3434;BME280;1730;41.932;25.548;2022-08-07T15:32:16;98735.53;;;28.51;100.00
3434;BME280;1730;41.932;25.548;2022-08-07T15:34:46;98733.91;;;28.35;100.00
3434;BME280;1730;41.932;25.548;2022-08-07T15:37:14;98726.13;;;28.42;100.00
3434;BME280;1730;41.932;25.548;2022-08-07T15:39:46;98725.94;;;28.23;100.00